Time;durP1;ratioP1;P1;durP2;ratioP2;P2;SDS_P1;SDS_P2;PMS_P1;PMS_P2;Temp;Humidity;BMP_temperature;BMP_pressure;BME280_temperature;BME280_humidity;BME280_pressure;Samples;Min_cycle;Max_cycle;Signal;HPM_P1;HPM_P2
2023/11/08 00:00:02;;;;;;;4.10;2.60;;;;;;;-147.86;100.00;48287.05;105854;1256;71566;-54
2023/11/08 00:02:39;;;;;;;6.30;2.60;;;;;;;-147.86;100.00;48291.76;105870;1259;61849;-47
2023/11/08 00:05:06;;;;;;;4.50;2.80;;;;;;;-147.86;100.00;48289.01;105947;1254;60534;-46
2023/11/08 00:07:33;;;;;;;5.80;3.10;;;;;;;-147.86;100.00;48306.66;105917;1256;73255;-47
2023/11/08 00:10:00;;;;;;;6.50;3.40;;;;;;;-147.86;100.00;48293.72;105890;1256;64659;-48
2023/11/08 00:12:27;;;;;;;5.60;2.50;;;;;;;-147.86;100.00;48289.80;105934;1254;72637;-48
2023/11/08 00:14:56;;;;;;;5.50;2.50;;;;;;;-147.86;100.00;48282.74;105861;1257;62078;-50
2023/11/08 00:17:25;;;;;;;9.30;2.70;;;;;;;-147.86;100.00;48290.19;105916;1257;60402;-45
2023/11/08 00:19:54;;;;;;;3.50;2.80;;;;;;;-147.86;100.00;48299.60;105869;1256;73790;-45
2023/11/08 00:22:21;;;;;;;6.30;2.90;;;;;;;-147.86;100.00;48301.96;105863;1256;64776;-47
2023/11/08 00:24:48;;;;;;;5.90;3.10;;;;;;;-147.86;100.00;48277.25;105847;1257;72493;-48
2023/11/08 00:27:15;;;;;;;5.40;3.20;;;;;;;-147.86;100.00;48295.68;105901;1266;60332;-47
2023/11/08 00:29:43;;;;;;;4.70;2.40;;;;;;;-147.86;100.00;48292.15;105863;1259;60411;-49
2023/11/08 00:32:10;;;;;;;3.20;2.70;;;;;;;-147.86;100.00;48295.68;105877;1257;75155;-48
2023/11/08 00:34:37;;;;;;;5.70;2.80;;;;;;;-147.86;100.00;48292.15;105814;1258;65430;-46
2023/11/08 00:37:04;;;;;;;14.40;6.10;;;;;;;-147.86;100.00;48311.36;105851;1257;71417;-49
2023/11/08 00:39:32;;;;;;;7.20;3.10;;;;;;;-147.86;100.00;48304.30;105856;1257;60475;-49
2023/11/08 00:41:59;;;;;;;15.30;6.10;;;;;;;-147.86;100.00;48310.58;105842;1256;60481;-47
2023/11/08 00:44:26;;;;;;;6.90;3.00;;;;;;;-147.86;100.00;48322.34;105801;1254;72909;-47
2023/11/08 00:46:54;;;;;;;7.30;3.20;;;;;;;-147.86;100.00;48310.97;105824;1257;65374;-48
2023/11/08 00:49:20;;;;;;;19.40;10.40;;;;;;;-147.86;100.00;48307.44;105703;1258;72434;-47
2023/11/08 00:51:49;;;;;;;19.50;8.70;;;;;;;-147.86;100.00;48315.29;105900;1257;60335;-45
2023/11/08 00:54:17;;;;;;;111.60;47.90;;;;;;;-147.86;100.00;48334.50;105856;1256;60472;-47
2023/11/08 00:56:45;;;;;;;25.20;7.60;;;;;;;-147.86;100.00;48335.67;105691;1258;72417;-50
2023/11/08 00:59:11;;;;;;;19.60;9.70;;;;;;;-147.86;100.00;48338.41;105870;1257;65483;-49
2023/11/08 01:01:38;;;;;;;19.40;8.50;;;;;;;-147.86;100.00;48336.85;105689;1255;72484;-48
2023/11/08 01:04:10;;;;;;;5.70;3.50;;;;;;;-147.86;100.00;48347.04;105831;1256;60515;-44
2023/11/08 01:06:39;;;;;;;35.80;15.70;;;;;;;-147.86;100.00;48332.14;105681;1255;60493;-48
2023/11/08 01:09:07;;;;;;;5.80;2.40;;;;;;;-147.86;100.00;48352.14;105944;1266;73869;-44
2023/11/08 01:11:35;;;;;;;2.80;2.20;;;;;;;-147.86;100.00;48338.02;105905;1254;63949;-48
2023/11/08 01:14:03;;;;;;;9.60;3.30;;;;;;;-147.86;100.00;48346.65;105940;1257;72530;-47
2023/11/08 01:16:33;;;;;;;4.50;2.80;;;;;;;-147.86;100.00;48353.71;105904;1256;60427;-48
2023/11/08 01:19:02;;;;;;;23.10;10.50;;;;;;;-147.86;100.00;48350.57;105881;1256;60414;-44
2023/11/08 01:21:29;;;;;;;8.70;3.20;;;;;;;-147.86;100.00;48370.57;105909;1254;73712;-47
2023/11/08 01:23:56;;;;;;;6.50;2.80;;;;;;;-147.86;100.00;48384.29;105881;1257;65243;-49
2023/11/08 01:26:23;;;;;;;8.90;3.10;;;;;;;-147.86;100.00;48364.29;105843;1255;72533;-46
2023/11/08 01:28:49;;;;;;;4.60;2.60;;;;;;;-147.86;100.00;48407.82;105836;1258;60444;-48
2023/11/08 01:31:17;;;;;;;5.00;3.00;;;;;;;-147.86;100.00;48397.23;105884;1257;60427;-49
2023/11/08 01:33:43;;;;;;;8.60;3.10;;;;;;;-147.86;100.00;48425.46;105869;1257;73787;-45
2023/11/08 01:36:11;;;;;;;4.50;2.40;;;;;;;-147.86;100.00;48419.58;105872;1256;65477;-46
2023/11/08 01:38:39;;;;;;;6.20;2.60;;;;;;;-147.86;100.00;48435.26;105852;1256;72637;-49
2023/11/08 01:41:06;;;;;;;6.00;2.60;;;;;;;-147.86;100.00;48432.91;105848;1257;60338;-44
2023/11/08 01:43:34;;;;;;;5.00;2.80;;;;;;;-147.86;100.00;48448.59;105882;1253;60533;-49
2023/11/08 01:46:23;;;;;;;4.60;2.80;;;;;;;-147.86;100.00;48465.07;105900;1254;72780;-46
2023/11/08 01:48:51;;;;;;;8.20;3.30;;;;;;;-147.86;100.00;48481.53;105935;1256;64741;-45
2023/11/08 01:51:19;;;;;;;8.10;2.90;;;;;;;-147.86;100.00;48459.57;105871;1253;71234;-51
2023/11/08 01:53:47;;;;;;;10.90;3.20;;;;;;;-147.86;100.00;48473.30;105869;1257;60341;-47
2023/11/08 01:56:13;;;;;;;4.70;2.60;;;;;;;-147.86;100.00;48483.88;105712;1259;60536;-49
2023/11/08 01:58:41;;;;;;;8.60;3.20;;;;;;;-147.86;100.00;48480.74;105636;1255;73931;-49
2023/11/08 02:01:10;;;;;;;6.20;3.20;;;;;;;-147.86;100.00;48483.49;105871;1257;64762;-45
2023/11/08 02:03:37;;;;;;;4.40;3.00;;;;;;;-147.86;100.00;48503.88;105725;1258;70797;-48
2023/11/08 02:06:04;;;;;;;6.70;2.80;;;;;;;-147.86;100.00;48488.98;105837;1255;60543;-47
2023/11/08 02:08:31;;;;;;;5.70;3.00;;;;;;;-147.86;100.00;48481.92;105529;1254;294213;-45
2023/11/08 02:13:13;;;;;;;4.60;2.90;;;;;;;-147.86;100.00;48482.31;102469;1293;603411;-45
2023/11/08 02:15:41;;;;;;;5.00;2.60;;;;;;;-147.86;100.00;48503.49;104834;1268;59368;-48
2023/11/08 02:18:10;;;;;;;4.50;2.70;;;;;;;-147.86;100.00;48501.92;105156;1264;60279;-46
2023/11/08 02:20:37;;;;;;;5.80;2.50;;;;;;;-147.86;100.00;48506.63;105129;1264;72217;-46
2023/11/08 02:23:04;;;;;;;4.70;2.60;;;;;;;-147.86;100.00;48510.15;104864;1269;65424;-45
2023/11/08 02:25:31;;;;;;;5.70;3.50;;;;;;;-147.86;100.00;48522.70;104997;1263;212323;-47
2023/11/08 02:27:58;;;;;;;7.30;2.70;;;;;;;-147.86;100.00;48519.56;105265;1266;61953;-45
2023/11/08 02:30:25;;;;;;;4.20;3.00;;;;;;;-147.86;100.00;48522.30;105275;1264;60401;-48
2023/11/08 02:32:52;;;;;;;7.30;2.90;;;;;;;-147.86;100.00;48548.19;105211;1262;72151;-47
2023/11/08 02:35:20;;;;;;;4.20;2.80;;;;;;;-147.86;100.00;48547.41;105217;1266;64762;-49
2023/11/08 02:37:48;;;;;;;8.90;3.10;;;;;;;-147.86;100.00;48560.74;105206;1263;72619;-49
2023/11/08 02:40:15;;;;;;;5.20;3.20;;;;;;;-147.86;100.00;48565.05;105248;1262;61925;-46
2023/11/08 02:42:42;;;;;;;5.20;2.60;;;;;;;-147.86;100.00;48574.46;105224;1264;60166;-46
2023/11/08 02:45:09;;;;;;;5.20;2.70;;;;;;;-147.86;100.00;48596.02;105335;1264;73171;-47
2023/11/08 02:47:37;;;;;;;9.90;2.90;;;;;;;-147.86;100.00;48612.89;105233;1267;65379;-47
2023/11/08 02:50:05;;;;;;;5.50;3.00;;;;;;;-147.86;100.00;48633.66;105206;1264;72660;-49
2023/11/08 02:52:32;;;;;;;4.10;2.90;;;;;;;-147.86;100.00;48653.66;105235;1264;60399;-47
2023/11/08 02:54:59;;;;;;;4.60;2.80;;;;;;;-147.86;100.00;48640.73;105203;1263;60297;-47
2023/11/08 02:57:27;;;;;;;4.20;2.80;;;;;;;-147.86;100.00;48660.34;105238;1263;73014;-53
2023/11/08 02:59:54;;;;;;;6.00;3.20;;;;;;;-147.86;100.00;48648.96;105208;1266;63773;-47
2023/11/08 03:02:21;;;;;;;4.70;3.10;;;;;;;-147.86;100.00;48667.78;105168;1264;72293;-48
2023/11/08 03:04:48;;;;;;;7.80;3.50;;;;;;;-147.86;100.00;48670.13;105183;1267;62268;-51
2023/11/08 03:07:16;;;;;;;6.60;3.30;;;;;;;-147.86;100.00;48670.13;105152;1263;60226;-48
2023/11/08 03:09:43;;;;;;;4.10;2.80;;;;;;;-147.86;100.00;48692.48;105189;1264;73056;-52
2023/11/08 03:12:10;;;;;;;5.40;3.20;;;;;;;-147.86;100.00;48691.70;104847;1267;65448;-50
2023/11/08 03:14:37;;;;;;;7.30;3.10;;;;;;;-147.86;100.00;48724.64;104901;1264;72581;-49
2023/11/08 03:17:03;;;;;;;7.20;3.40;;;;;;;-147.86;100.00;48722.68;105120;1269;61937;-46
2023/11/08 03:19:31;;;;;;;7.30;3.30;;;;;;;-147.86;100.00;48747.38;105186;1263;60252;-51
2023/11/08 03:22:00;;;;;;;6.20;3.50;;;;;;;-147.86;100.00;48749.73;105529;1258;72996;-45
2023/11/08 03:24:27;;;;;;;7.40;3.20;;;;;;;-147.86;100.00;48761.50;105643;1260;65791;-48
2023/11/08 03:26:55;;;;;;;6.20;3.40;;;;;;;-147.86;100.00;48783.07;105620;1260;72689;-45
2023/11/08 03:29:21;;;;;;;4.80;3.20;;;;;;;-147.86;100.00;48804.63;105671;1257;61691;-47
2023/11/08 03:31:49;;;;;;;6.50;3.00;;;;;;;-147.86;100.00;48814.43;105601;1257;60257;-45
2023/11/08 03:34:16;;;;;;;7.30;3.10;;;;;;;-147.86;100.00;48831.30;105583;1257;72940;-49
2023/11/08 03:36:44;;;;;;;4.40;3.20;;;;;;;-147.86;100.00;48836.40;105645;1260;65422;-46
2023/11/08 03:39:11;;;;;;;3.80;3.30;;;;;;;-147.86;100.00;48864.63;105594;1257;72666;-50
2023/11/08 03:41:39;;;;;;;3.80;3.00;;;;;;;-147.86;100.00;48892.47;105610;1260;60790;-45
2023/11/08 03:44:07;;;;;;;7.90;3.00;;;;;;;-147.86;100.00;48892.87;105633;1257;60180;-48
2023/11/08 03:46:34;;;;;;;11.50;3.70;;;;;;;-147.86;100.00;48902.27;105633;1260;72854;-49
2023/11/08 03:49:01;;;;;;;4.60;3.20;;;;;;;-147.86;100.00;48896.79;105600;1260;65347;-48
2023/11/08 03:51:28;;;;;;;11.20;3.50;;;;;;;-147.86;100.00;48920.31;105663;1257;72634;-48
2023/11/08 03:53:55;;;;;;;8.50;3.40;;;;;;;-147.86;100.00;48926.59;105661;1257;61953;-49
2023/11/08 03:56:22;;;;;;;5.80;3.50;;;;;;;-147.86;100.00;48930.91;105648;1256;60269;-49
2023/11/08 03:58:49;;;;;;;9.00;3.10;;;;;;;-147.86;100.00;48937.57;105628;1257;73104;-50
2023/11/08 04:01:16;;;;;;;3.90;3.40;;;;;;;-147.86;100.00;48926.20;105677;1258;65637;-49
2023/11/08 04:03:43;;;;;;;5.60;3.40;;;;;;;-147.86;100.00;48950.90;105664;1257;72738;-47
2023/11/08 04:06:10;;;;;;;6.10;3.70;;;;;;;-147.86;100.00;48964.63;105626;1260;61910;-48
2023/11/08 04:08:37;;;;;;;5.60;3.50;;;;;;;-147.86;100.00;48961.49;105644;1257;59950;-45
2023/11/08 04:11:04;;;;;;;3.40;3.10;;;;;;;-147.86;100.00;48966.98;105626;1260;73072;-48
2023/11/08 04:13:31;;;;;;;6.50;3.30;;;;;;;-147.86;100.00;48952.47;105609;1260;65227;-49
2023/11/08 04:15:58;;;;;;;7.50;3.70;;;;;;;-147.86;100.00;48954.04;105614;1257;72647;-50
2023/11/08 04:18:24;;;;;;;5.30;3.10;;;;;;;-147.86;100.00;48968.55;105588;1257;61835;-45
2023/11/08 04:20:51;;;;;;;6.00;3.30;;;;;;;-147.86;100.00;48974.04;105641;1257;60343;-47
2023/11/08 04:23:18;;;;;;;5.40;3.30;;;;;;;-147.86;100.00;48967.76;105636;1256;72862;-45
2023/11/08 04:25:49;;;;;;;6.20;3.20;;;;;;;-147.86;100.00;48986.59;105644;1260;64652;-47
2023/11/08 04:28:17;;;;;;;4.20;2.80;;;;;;;-147.86;100.00;48987.77;105620;1257;72649;-49
2023/11/08 04:30:45;;;;;;;7.40;2.60;;;;;;;-147.86;100.00;48982.27;105596;1262;61991;-47
2023/11/08 04:33:12;;;;;;;4.90;2.90;;;;;;;-147.86;100.00;49008.95;105608;1257;60113;-47
2023/11/08 04:35:39;;;;;;;3.90;3.00;;;;;;;-147.86;100.00;49001.88;105659;1257;72992;-49
2023/11/08 04:38:06;;;;;;;5.20;2.40;;;;;;;-147.86;100.00;49019.53;105632;1260;65283;-46
2023/11/08 04:40:33;;;;;;;2.70;2.50;;;;;;;-147.86;100.00;49036.79;105634;1257;72738;-50
2023/11/08 04:43:00;;;;;;;3.40;2.50;;;;;;;-147.86;100.00;49030.51;105603;1257;61913;-44
2023/11/08 04:45:27;;;;;;;4.50;2.10;;;;;;;-147.86;100.00;49037.96;105670;1256;60208;-48
2023/11/08 04:47:54;;;;;;;4.30;2.70;;;;;;;-147.86;100.00;49036.79;105639;1260;73028;-46
2023/11/08 04:50:21;;;;;;;4.70;2.70;;;;;;;-147.86;100.00;49006.20;105645;1260;65512;-48
2023/11/08 04:52:48;;;;;;;3.80;1.90;;;;;;;-147.86;100.00;48991.29;105607;1257;72631;-45
2023/11/08 04:55:15;;;;;;;2.50;2.00;;;;;;;-147.86;100.00;48989.33;105655;1260;61937;-45
2023/11/08 04:57:42;;;;;;;3.70;1.90;;;;;;;-147.86;100.00;48949.34;105632;1257;60232;-48
2023/11/08 05:00:10;;;;;;;12.50;2.40;;;;;;;-147.86;100.00;48924.63;105631;1257;73002;-48
2023/11/08 05:02:38;;;;;;;3.10;1.60;;;;;;;-147.86;100.00;48914.04;105704;1260;65597;-46
2023/11/08 05:05:05;;;;;;;3.90;1.60;;;;;;;-147.86;100.00;48850.12;105625;1257;72424;-51
2023/11/08 05:07:32;;;;;;;8.30;1.50;;;;;;;-147.86;100.00;48792.87;105609;1257;59637;-46
2023/11/08 05:09:59;;;;;;;1.50;1.40;;;;;;;-147.86;100.00;48725.03;105643;1257;60070;-44
2023/11/08 05:12:27;;;;;;;1.70;1.40;;;;;;;-147.86;100.00;48642.30;105634;1258;72942;-48
2023/11/08 05:14:53;;;;;;;1.90;1.50;;;;;;;-147.86;100.00;48544.66;105623;1260;65449;-46
2023/11/08 05:17:21;;;;;;;4.10;1.60;;;;;;;-147.86;100.00;48498.39;105636;1257;72691;-47
2023/11/08 05:19:48;;;;;;;4.80;1.60;;;;;;;-147.86;100.00;48422.32;105654;1260;60306;-46
2023/11/08 05:22:14;;;;;;;2.10;1.60;;;;;;;-147.86;100.00;48389.39;105612;1256;60250;-46
2023/11/08 05:24:43;;;;;;;3.50;2.00;;;;;;;-147.86;100.00;48369.39;105679;1257;73016;-48
2023/11/08 05:27:11;;;;;;;5.70;2.60;;;;;;;-147.86;100.00;48332.14;105707;1260;64646;-47
2023/11/08 05:29:38;;;;;;;5.90;3.40;;;;;;;-147.86;100.00;48311.76;105622;1257;72630;-49
2023/11/08 05:32:07;;;;;;;7.80;4.00;;;;;;;-147.86;100.00;48300.78;105645;1256;60806;-49
2023/11/08 05:34:33;;;;;;;6.60;3.40;;;;;;;-147.86;100.00;48295.68;105683;1257;60516;-47
2023/11/08 05:37:00;;;;;;;10.10;3.90;;;;;;;-147.86;100.00;48272.94;105625;1260;73008;-46
2023/11/08 05:39:27;;;;;;;21.60;4.10;;;;;;;-147.86;100.00;48283.91;105597;1260;65359;-49
2023/11/08 05:41:55;;;;;;;8.40;4.70;;;;;;;-147.86;100.00;48280.39;105618;1257;72606;-47
2023/11/08 05:44:23;;;;;;;11.10;4.70;;;;;;;-147.86;100.00;48279.61;105673;1260;60370;-47
2023/11/08 05:46:50;;;;;;;8.80;4.90;;;;;;;-147.86;100.00;48270.98;105597;1257;60062;-50
2023/11/08 05:49:17;;;;;;;8.60;3.90;;;;;;;-147.86;100.00;48285.88;105602;1260;73057;-49
2023/11/08 05:51:44;;;;;;;5.30;2.90;;;;;;;-147.86;100.00;48278.04;105672;1260;65480;-53
2023/11/08 05:54:11;;;;;;;2.80;2.00;;;;;;;-147.86;100.00;48279.21;105507;1258;72315;-51
2023/11/08 05:56:38;;;;;;;1.20;1.10;;;;;;;-147.86;100.00;48294.11;105254;1260;60211;-47
2023/11/08 05:59:06;;;;;;;2.50;1.50;;;;;;;-147.86;100.00;48283.52;105375;1257;60271;-46
2023/11/08 06:01:33;;;;;;;3.30;1.30;;;;;;;-147.86;100.00;48295.68;105585;1260;71812;-49
2023/11/08 06:04:00;;;;;;;1.20;1.00;;;;;;;-147.86;100.00;48279.21;105621;1260;65498;-47
2023/11/08 06:06:27;;;;;;;1.70;1.00;;;;;;;-147.86;100.00;48290.19;105666;1257;72335;-54
2023/11/08 06:08:54;;;;;;;1.50;1.10;;;;;;;-147.86;100.00;48277.64;105621;1260;60305;-48
2023/11/08 06:11:21;;;;;;;2.10;1.40;;;;;;;-147.86;100.00;48283.13;105616;1260;59653;-50
2023/11/08 06:13:48;;;;;;;3.10;1.30;;;;;;;-147.86;100.00;48278.82;105600;1260;72851;-48
2023/11/08 06:16:15;;;;;;;3.60;1.50;;;;;;;-147.86;100.00;48276.86;105616;1260;65206;-46
2023/11/08 06:18:42;;;;;;;10.40;2.80;;;;;;;-147.86;100.00;48284.70;105620;1257;72756;-49
2023/11/08 06:21:13;;;;;;;6.40;3.10;;;;;;;-147.86;100.00;48275.29;105646;1257;62574;-45
2023/11/08 06:23:43;;;;;;;6.50;3.30;;;;;;;-147.86;100.00;48274.11;105612;1257;61112;-48
2023/11/08 06:26:16;;;;;;;7.40;3.00;;;;;;;-147.86;100.00;48284.70;105622;1257;74040;-49
2023/11/08 06:28:46;;;;;;;3.00;2.40;;;;;;;-147.86;100.00;48274.51;105647;1260;65524;-49
2023/11/08 06:31:13;;;;;;;4.90;3.00;;;;;;;-147.86;100.00;48283.13;105625;1257;72730;-46
2023/11/08 06:33:40;;;;;;;8.50;4.20;;;;;;;-147.86;100.00;48292.93;105612;1260;60438;-48
2023/11/08 06:36:07;;;;;;;10.70;4.30;;;;;;;-147.86;100.00;48294.89;105655;1257;60415;-48
2023/11/08 06:38:34;;;;;;;12.60;3.60;;;;;;;-147.86;100.00;48275.29;105622;1260;73806;-48
2023/11/08 06:41:01;;;;;;;8.20;3.40;;;;;;;-147.86;100.00;48287.84;105613;1257;65455;-47
2023/11/08 06:43:28;;;;;;;4.90;2.40;;;;;;;-147.86;100.00;48286.66;105635;1260;72351;-51
2023/11/08 06:45:55;;;;;;;8.90;2.70;;;;;;;-147.86;100.00;48283.91;105625;1260;60435;-48
2023/11/08 06:48:22;;;;;;;4.50;2.90;;;;;;;-147.86;100.00;48284.30;105686;1256;60415;-50
2023/11/08 06:50:49;;;;;;;8.60;3.50;;;;;;;-147.86;100.00;48286.66;105623;1257;72459;-46
2023/11/08 06:53:17;;;;;;;7.30;3.60;;;;;;;-147.86;100.00;48297.64;105676;1260;64358;-46
2023/11/08 06:55:46;;;;;;;6.00;3.20;;;;;;;-147.86;100.00;48297.64;105637;1257;73656;-48
2023/11/08 06:58:13;;;;;;;8.50;3.10;;;;;;;-147.86;100.00;48308.23;105598;1260;61700;-50
2023/11/08 07:00:40;;;;;;;10.20;3.30;;;;;;;-147.86;100.00;48299.99;105635;1256;60450;-47
2023/11/08 07:03:09;;;;;;;9.20;3.30;;;;;;;-147.86;100.00;48308.23;105645;1257;73604;-51
2023/11/08 07:05:35;;;;;;;5.70;3.50;;;;;;;-147.86;100.00;48307.45;105271;1260;65660;-49
2023/11/08 07:08:07;;;;;;;8.20;3.80;;;;;;;-147.86;100.00;48296.07;105431;1257;72850;-47
2023/11/08 07:10:34;;;;;;;12.00;3.90;;;;;;;-147.86;100.00;48298.81;105635;1260;60434;-51
2023/11/08 07:13:01;;;;;;;18.90;4.30;;;;;;;-147.86;100.00;48292.54;105648;1257;61057;-52
2023/11/08 07:15:29;;;;;;;7.30;3.60;;;;;;;-147.86;100.00;48294.50;105681;1257;75035;-47
2023/11/08 07:17:56;;;;;;;10.00;3.90;;;;;;;-147.86;100.00;48293.72;105659;1260;65722;-44
2023/11/08 07:20:24;;;;;;;8.70;4.70;;;;;;;-147.86;100.00;48288.62;105639;1257;72273;-47
2023/11/08 07:22:51;;;;;;;9.90;4.50;;;;;;;-147.86;100.00;48289.80;105645;1260;61218;-45
2023/11/08 07:25:18;;;;;;;11.10;5.10;;;;;;;-147.86;100.00;48299.60;105694;1257;60450;-45
2023/11/08 07:27:45;;;;;;;10.40;5.10;;;;;;;-147.86;100.00;48289.41;105619;1260;73447;-47
2023/11/08 07:30:14;;;;;;;11.60;5.90;;;;;;;-147.86;100.00;48291.76;105664;1260;66484;-46
2023/11/08 07:32:45;;;;;;;9.60;5.40;;;;;;;-147.86;100.00;48294.11;105628;1258;72942;-45
2023/11/08 07:35:12;;;;;;;15.20;5.80;;;;;;;-147.86;100.00;48295.29;105624;1260;62510;-48
2023/11/08 07:37:39;;;;;;;11.60;5.30;;;;;;;-147.86;100.00;48287.84;105628;1257;60456;-48
2023/11/08 07:40:07;;;;;;;8.80;5.30;;;;;;;-147.86;100.00;48303.52;105644;1260;73475;-45
2023/11/08 07:42:37;;;;;;;13.60;5.50;;;;;;;-147.86;100.00;48287.05;105669;1260;65430;-47
2023/11/08 07:45:06;;;;;;;14.20;5.10;;;;;;;-147.86;100.00;48291.76;105590;1257;73146;-47
2023/11/08 07:47:33;;;;;;;6.90;4.50;;;;;;;-147.86;100.00;48290.97;105611;1257;60572;-48
2023/11/08 07:50:03;;;;;;;9.10;5.30;;;;;;;-147.86;100.00;48280.39;105643;1257;60492;-44
2023/11/08 07:52:30;;;;;;;8.10;5.00;;;;;;;-147.86;100.00;48296.46;105595;1258;73561;-46
2023/11/08 07:54:58;;;;;;;15.20;4.20;;;;;;;-147.86;100.00;48287.05;105585;1260;64354;-47
2023/11/08 07:57:26;;;;;;;9.50;4.10;;;;;;;-147.86;100.00;48274.90;105625;1260;71377;-46
2023/11/08 07:59:54;;;;;;;13.40;4.50;;;;;;;-147.86;100.00;48298.42;105634;1260;61259;-46
2023/11/08 08:02:21;;;;;;;6.90;4.50;;;;;;;-147.86;100.00;48292.93;105650;1260;60841;-48
2023/11/08 08:04:48;;;;;;;11.00;5.70;;;;;;;-147.86;100.00;48298.04;105581;1257;73706;-51
2023/11/08 08:07:16;;;;;;;11.80;5.40;;;;;;;-147.86;100.00;48284.70;105660;1260;65372;-46
2023/11/08 08:09:43;;;;;;;13.60;7.20;;;;;;;-147.86;100.00;48290.58;105604;1257;73143;-48
2023/11/08 08:12:12;;;;;;;15.50;7.90;;;;;;;-147.86;100.00;48296.86;105611;1260;61279;-47
2023/11/08 08:14:39;;;;;;;22.70;11.10;;;;;;;-147.86;100.00;48294.50;105646;1257;60618;-49
2023/11/08 08:17:06;;;;;;;21.20;10.60;;;;;;;-147.86;100.00;48294.11;105607;1260;74241;-48
2023/11/08 08:19:33;;;;;;;20.70;11.00;;;;;;;-147.86;100.00;48288.63;105672;1260;66433;-45
2023/11/08 08:22:01;;;;;;;21.10;11.20;;;;;;;-147.86;100.00;48310.19;105569;1257;73471;-47
2023/11/08 08:24:29;;;;;;;27.30;12.10;;;;;;;-147.86;100.00;48296.86;105616;1260;61297;-47
2023/11/08 08:26:56;;;;;;;27.80;11.50;;;;;;;-147.86;100.00;48297.64;105617;1257;61839;-49
2023/11/08 08:29:26;;;;;;;25.80;11.00;;;;;;;-147.86;100.00;48307.05;105607;1257;74404;-46
2023/11/08 08:31:53;;;;;;;19.30;8.80;;;;;;;-147.86;100.00;48285.09;105627;1259;66640;-49
2023/11/08 08:34:20;;;;;;;18.30;8.50;;;;;;;-147.86;100.00;48290.59;105637;1257;72382;-47
2023/11/08 08:37:01;;;;;;;16.50;8.50;;;;;;;-147.86;100.00;48306.66;105551;1260;61800;-48
2023/11/08 08:39:29;;;;;;;14.60;8.00;;;;;;;-147.86;100.00;48299.21;105690;1260;60352;-49
2023/11/08 08:41:58;;;;;;;12.40;8.30;;;;;;;-147.86;100.00;48323.91;105609;1258;74938;-49
2023/11/08 08:44:26;;;;;;;16.10;8.20;;;;;;;-147.86;100.00;48327.44;105611;1257;65924;-50
2023/11/08 08:46:56;;;;;;;14.30;7.30;;;;;;;-147.86;100.00;48332.93;105602;1260;72674;-48
2023/11/08 08:49:27;;;;;;;12.10;6.70;;;;;;;-147.86;100.00;48306.66;105597;1257;62210;-45
2023/11/08 08:51:55;;;;;;;9.80;6.30;;;;;;;-147.86;100.00;48347.04;105622;1256;61132;-50
2023/11/08 08:54:24;;;;;;;9.00;6.20;;;;;;;-147.86;100.00;48348.61;105602;1257;72535;-51
2023/11/08 08:56:51;;;;;;;20.20;8.50;;;;;;;-147.86;100.00;48375.27;105640;1259;63659;-49
2023/11/08 08:59:18;;;;;;;8.90;5.90;;;;;;;-147.86;100.00;48378.02;105629;1260;74122;-49
2023/11/08 09:01:46;;;;;;;9.30;5.50;;;;;;;-147.86;100.00;48399.58;105616;1257;62161;-51
2023/11/08 09:04:13;;;;;;;11.70;6.10;;;;;;;-147.86;100.00;48428.60;105595;1257;61136;-51
2023/11/08 09:06:40;;;;;;;9.80;5.80;;;;;;;-147.86;100.00;48448.59;105634;1258;73860;-48
2023/11/08 09:09:14;;;;;;;17.50;10.60;;;;;;;-147.86;100.00;48488.98;105651;1260;65699;-49
2023/11/08 09:11:42;;;;;;;11.80;5.50;;;;;;;-147.86;100.00;48526.23;105625;1257;73972;-52
2023/11/08 09:14:09;;;;;;;11.70;4.30;;;;;;;-147.86;100.00;48542.70;105627;1260;60953;-48
2023/11/08 09:16:37;;;;;;;5.40;4.10;;;;;;;-147.86;100.00;48588.57;105676;1258;60783;-49
2023/11/08 09:19:08;;;;;;;9.80;5.30;;;;;;;-147.86;100.00;48627.00;105635;1258;73675;-49
2023/11/08 09:21:36;;;;;;;10.70;5.50;;;;;;;-147.86;100.00;48647.79;105643;1259;65953;-53
2023/11/08 09:24:06;;;;;;;11.90;5.50;;;;;;;-147.86;100.00;48654.45;105617;1260;72950;-51
2023/11/08 09:26:33;;;;;;;12.40;5.10;;;;;;;-147.86;100.00;48679.55;105616;1260;62476;-50
2023/11/08 09:29:00;;;;;;;6.60;5.00;;;;;;;-147.86;100.00;48685.82;105649;1257;61057;-50
2023/11/08 09:31:27;;;;;;;11.00;6.10;;;;;;;-147.86;100.00;48699.94;105678;1260;73222;-51
2023/11/08 09:33:59;;;;;;;8.30;4.90;;;;;;;-147.86;100.00;48706.99;105612;1260;65806;-50
2023/11/08 09:36:26;;;;;;;10.20;5.70;;;;;;;-147.86;100.00;48715.62;105640;1260;71974;-46
2023/11/08 09:38:53;;;;;;;11.60;4.80;;;;;;;-147.86;100.00;48720.71;105654;1260;60633;-51
2023/11/08 09:41:22;;;;;;;7.30;4.10;;;;;;;-147.86;100.00;48741.89;105638;1257;60456;-49
2023/11/08 09:43:49;;;;;;;6.30;4.10;;;;;;;-147.86;100.00;48772.09;105646;1258;74627;-48
2023/11/08 09:46:16;;;;;;;11.00;3.30;;;;;;;-147.86;100.00;48768.95;105617;1260;65640;-47
2023/11/08 09:48:45;;;;;;;4.10;2.40;;;;;;;-147.86;100.00;48797.19;105639;1258;73693;-47
2023/11/08 09:51:13;;;;;;;8.80;2.90;;;;;;;-147.86;100.00;48803.46;105878;1256;61319;-47
2023/11/08 09:53:43;;;;;;;5.80;3.10;;;;;;;-147.86;100.00;48832.48;105894;1254;60454;-50
2023/11/08 09:56:11;;;;;;;7.40;3.40;;;;;;;-147.86;100.00;48859.14;105902;1256;74786;-46
2023/11/08 09:58:42;;;;;;;4.00;3.10;;;;;;;-147.86;100.00;48874.43;105853;1256;66064;-49
2023/11/08 10:01:16;;;;;;;6.10;3.20;;;;;;;-147.86;100.00;48925.41;105902;1254;72612;-49
2023/11/08 10:03:44;;;;;;;6.20;3.80;;;;;;;-147.86;100.00;48934.04;105845;1254;60610;-52
2023/11/08 10:06:12;;;;;;;10.30;3.40;;;;;;;-147.86;100.00;48959.53;105861;1257;60437;-48
2023/11/08 10:08:39;;;;;;;14.40;3.40;;;;;;;-147.86;100.00;48975.61;105880;1256;73547;-50
2023/11/08 10:11:06;;;;;;;10.20;3.30;;;;;;;-147.86;100.00;48999.14;105885;1256;65409;-52
2023/11/08 10:13:49;;;;;;;6.40;3.60;;;;;;;-147.86;100.00;49041.88;105891;1254;73383;-50
2023/11/08 10:16:17;;;;;;;4.90;3.30;;;;;;;-147.86;100.00;49086.20;105875;1256;61948;-50
2023/11/08 10:18:56;;;;;;;5.60;3.20;;;;;;;-147.86;100.00;49117.57;105931;1256;60594;-51
2023/11/08 10:21:50;;;;;;;11.50;3.10;;;;;;;-147.86;100.00;49172.47;105891;1256;74242;-48
2023/11/08 10:24:18;;;;;;;7.40;2.80;;;;;;;-147.86;100.00;49188.95;105972;1256;64448;-48
2023/11/08 10:26:46;;;;;;;4.70;3.00;;;;;;;-147.86;100.00;49226.59;105854;1254;73674;-50
2023/11/08 10:29:15;;;;;;;6.30;3.80;;;;;;;-147.86;100.00;49273.65;105939;1256;60408;-49
2023/11/08 10:31:44;;;;;;;18.80;8.90;;;;;;;-147.86;100.00;49294.04;105929;1253;61305;-48
2023/11/08 10:34:12;;;;;;;15.30;6.90;;;;;;;-147.86;100.00;49337.57;105882;1256;74385;-50
2023/11/08 10:36:39;;;;;;;11.40;3.60;;;;;;;-147.86;100.00;49359.54;105935;1256;65757;-50
2023/11/08 10:39:13;;;;;;;7.40;3.00;;;;;;;-147.86;100.00;49393.66;105939;1254;72241;-49
2023/11/08 10:41:42;;;;;;;6.10;3.30;;;;;;;-147.86;100.00;49415.23;105916;1256;62398;-49
2023/11/08 10:44:14;;;;;;;7.00;2.80;;;;;;;-147.86;100.00;49428.57;105893;1256;60897;-49
2023/11/08 10:46:42;;;;;;;4.80;2.60;;;;;;;-147.86;100.00;49479.55;105942;1257;74242;-52
2023/11/08 10:49:10;;;;;;;5.90;2.60;;;;;;;-147.86;100.00;49476.41;105901;1254;65945;-49
2023/11/08 10:51:39;;;;;;;7.10;2.60;;;;;;;-147.86;100.00;49508.96;105907;1257;72780;-47
2023/11/08 10:54:06;;;;;;;9.00;3.20;;;;;;;-147.86;100.00;49521.13;105901;1256;60548;-50
2023/11/08 10:56:34;;;;;;;9.90;2.60;;;;;;;-147.86;100.00;49531.71;105862;1254;60632;-52
2023/11/08 10:59:03;;;;;;;12.70;2.70;;;;;;;-147.86;100.00;49563.09;105891;1257;74196;-53
2023/11/08 11:01:31;;;;;;;10.30;3.00;;;;;;;-147.86;100.00;49580.35;105771;1256;65067;-46
2023/11/08 11:04:06;;;;;;;9.10;3.10;;;;;;;-147.86;100.00;49596.82;105955;1254;73049;-52